Time;durP1;ratioP1;P1;durP2;ratioP2;P2;SDS_P1;SDS_P2;PMS_P1;PMS_P2;Temp;Humidity;BMP_temperature;BMP_pressure;BME280_temperature;BME280_humidity;BME280_pressure;Samples;Min_cycle;Max_cycle;Signal;HPM_P1;HPM_P2
2023/05/16 00:00:24;;;;;;;1999.90;999.90;;;10.40;99.90;;;;;;5075133;28;20048;-73
2023/05/16 00:02:52;;;;;;;1999.90;999.90;;;10.40;99.90;;;;;;5055778;28;20033;-76
2023/05/16 00:05:18;;;;;;;1999.90;999.90;;;10.30;99.90;;;;;;5055827;28;20021;-73
2023/05/16 00:07:46;;;;;;;1999.90;999.90;;;10.30;99.90;;;;;;5056506;28;20055;-76
2023/05/16 00:10:12;;;;;;;1999.90;999.90;;;10.30;99.90;;;;;;5074799;28;20470;-76
2023/05/16 00:12:38;;;;;;;1999.90;999.90;;;10.20;99.90;;;;;;5074893;28;20064;-76
2023/05/16 00:15:11;;;;;;;1999.90;999.90;;;10.20;99.90;;;;;;5076020;28;20427;-73
2023/05/16 00:17:37;;;;;;;1999.90;999.90;;;10.20;99.90;;;;;;5075797;28;20042;-76
2023/05/16 00:20:09;;;;;;;1999.90;999.90;;;10.10;99.90;;;;;;5075758;28;20029;-74
2023/05/16 00:22:36;;;;;;;1999.90;999.90;;;10.10;99.90;;;;;;5075818;28;20028;-73
2023/05/16 00:25:01;;;;;;;1999.90;999.90;;;10.10;99.90;;;;;;5074312;28;20115;-76
2023/05/16 00:27:27;;;;;;;1999.90;999.90;;;10.10;99.90;;;;;;5075759;28;20440;-76
2023/05/16 00:29:52;;;;;;;1999.90;999.90;;;10.10;99.90;;;;;;5075536;28;20024;-73
2023/05/16 00:32:18;;;;;;;1999.90;999.90;;;10.00;99.90;;;;;;5074826;28;20025;-76
2023/05/16 00:34:44;;;;;;;1999.90;999.90;;;10.10;99.90;;;;;;5075172;28;20021;-76
2023/05/16 00:37:10;;;;;;;1999.90;999.90;;;10.00;99.90;;;;;;5075389;28;20024;-76
2023/05/16 00:39:35;;;;;;;1999.90;999.90;;;10.00;99.90;;;;;;5074581;28;20025;-77
2023/05/16 00:42:01;;;;;;;1999.90;999.90;;;10.00;99.90;;;;;;5075445;28;20039;-76
2023/05/16 00:44:27;;;;;;;1999.90;999.90;;;10.00;99.90;;;;;;5075498;28;20024;-73
2023/05/16 00:46:53;;;;;;;1999.90;999.90;;;9.90;99.90;;;;;;5075403;28;20048;-74
2023/05/16 00:49:19;;;;;;;1999.90;999.90;;;9.90;99.90;;;;;;5075267;28;20480;-73
2023/05/16 00:51:45;;;;;;;1999.90;999.90;;;9.90;99.90;;;;;;5075494;28;20029;-73
2023/05/16 00:54:11;;;;;;;1999.90;999.90;;;9.90;99.90;;;;;;5075233;28;20198;-73
2023/05/16 00:56:37;;;;;;;1999.90;999.90;;;9.80;99.90;;;;;;5074498;28;20025;-73
2023/05/16 00:59:02;;;;;;;1999.90;999.90;;;9.80;99.90;;;;;;5075060;28;20470;-76
2023/05/16 01:01:29;;;;;;;1999.90;999.90;;;9.70;99.90;;;;;;5046755;28;20115;-76
2023/05/16 01:03:55;;;;;;;1999.90;999.90;;;9.70;99.90;;;;;;5054804;28;20049;-76
2023/05/16 01:06:21;;;;;;;1999.90;999.90;;;9.70;99.90;;;;;;5054643;28;20091;-73
2023/05/16 01:08:47;;;;;;;1999.90;999.90;;;9.70;99.90;;;;;;5064749;28;20028;-73
2023/05/16 01:11:33;;;;;;;1999.90;999.90;;;9.60;99.90;;;;;;5075007;28;20028;-76
2023/05/16 01:14:05;;;;;;;1999.90;999.90;;;9.60;99.90;;;;;;5074712;28;20027;-73
2023/05/16 01:16:50;;;;;;;1999.90;999.90;;;9.60;99.90;;;;;;5075019;28;20082;-76
2023/05/16 01:19:40;;;;;;;1999.90;999.90;;;9.60;99.90;;;;;;5074683;28;20455;-76
2023/05/16 01:22:15;;;;;;;1999.90;999.90;;;9.50;99.90;;;;;;5074985;28;20406;-73
2023/05/16 01:25:08;;;;;;;1999.90;999.90;;;9.50;99.90;;;;;;5073639;28;20411;-73
2023/05/16 01:27:35;;;;;;;1999.90;999.90;;;9.40;99.90;;;;;;5074351;28;20553;-77
2023/05/16 01:30:09;;;;;;;1999.90;999.90;;;9.40;99.90;;;;;;5074455;28;20475;-76
2023/05/16 01:32:35;;;;;;;1999.90;999.90;;;9.40;99.90;;;;;;5074223;28;20483;-77
2023/05/16 01:35:01;;;;;;;1999.90;999.90;;;9.40;99.90;;;;;;5074412;28;20056;-73
2023/05/16 01:37:37;;;;;;;1999.90;999.90;;;9.40;99.90;;;;;;5074231;28;20029;-76
2023/05/16 01:40:13;;;;;;;1999.90;999.90;;;9.40;99.90;;;;;;5073397;28;20038;-76
2023/05/16 01:42:43;;;;;;;1999.90;999.90;;;9.30;99.90;;;;;;5074327;28;20082;-76
2023/05/16 01:45:14;;;;;;;1999.90;999.90;;;9.30;99.90;;;;;;5074153;28;20032;-73
2023/05/16 01:47:46;;;;;;;1999.90;999.90;;;9.30;99.90;;;;;;5074223;28;20609;-73
2023/05/16 01:50:19;;;;;;;1999.90;999.90;;;9.20;99.90;;;;;;5073875;28;20032;-76
2023/05/16 01:52:47;;;;;;;1999.90;999.90;;;9.20;99.90;;;;;;5073893;28;20021;-73
2023/05/16 01:55:31;;;;;;;1999.90;999.90;;;9.20;99.90;;;;;;5073944;28;20099;-76
2023/05/16 01:57:57;;;;;;;;;;;9.10;99.90;;;;;;5073113;28;20484;-73
2023/05/16 02:00:23;;;;;;;1999.90;999.90;;;9.10;99.90;;;;;;5072487;28;19904;-74
2023/05/16 02:02:48;;;;;;;1999.90;999.90;;;9.10;99.90;;;;;;5053735;28;20036;-74
2023/05/16 02:05:14;;;;;;;1999.90;999.90;;;9.00;99.90;;;;;;5053756;28;20520;-77
2023/05/16 02:07:40;;;;;;;1999.90;999.90;;;9.00;99.90;;;;;;5053149;28;20052;-73
2023/05/16 02:10:06;;;;;;;1999.90;999.90;;;9.00;99.90;;;;;;5073115;28;20029;-77
2023/05/16 02:12:32;;;;;;;1999.90;999.90;;;9.00;99.90;;;;;;5073786;28;20021;-74
2023/05/16 02:14:58;;;;;;;1999.90;999.90;;;8.90;99.90;;;;;;5073694;28;20032;-73
2023/05/16 02:17:23;;;;;;;1999.90;999.90;;;8.90;99.90;;;;;;5073481;28;20024;-76
2023/05/16 02:19:49;;;;;;;1999.90;999.90;;;8.90;99.90;;;;;;5073480;28;20036;-76
2023/05/16 02:22:14;;;;;;;1999.90;999.90;;;8.80;99.90;;;;;;5073504;28;20545;-73
2023/05/16 02:24:40;;;;;;;1999.90;999.90;;;8.80;99.90;;;;;;5073416;28;20495;-73
2023/05/16 02:27:06;;;;;;;1999.90;999.90;;;8.80;99.90;;;;;;5073280;28;20032;-76
2023/05/16 02:29:31;;;;;;;1999.90;999.90;;;8.80;99.90;;;;;;5073325;28;20091;-76
2023/05/16 02:31:57;;;;;;;1999.90;999.90;;;8.80;99.90;;;;;;5073317;28;20391;-76
2023/05/16 02:34:23;;;;;;;1999.90;999.90;;;8.70;99.90;;;;;;5073245;28;20021;-77
2023/05/16 02:36:48;;;;;;;1999.90;999.90;;;8.70;99.90;;;;;;5073295;28;20508;-77
2023/05/16 02:39:14;;;;;;;1999.90;999.90;;;8.70;99.90;;;;;;5072997;28;20029;-73
2023/05/16 02:41:40;;;;;;;1999.90;999.90;;;8.70;99.90;;;;;;5072164;28;20127;-73
2023/05/16 02:44:05;;;;;;;1999.90;999.90;;;8.70;99.90;;;;;;5072823;28;20028;-73
2023/05/16 02:46:33;;;;;;;1999.90;999.90;;;8.60;99.90;;;;;;5072519;28;20056;-76
2023/05/16 02:48:59;;;;;;;1999.90;999.90;;;8.60;99.90;;;;;;5071742;28;20024;-73
2023/05/16 02:51:26;;;;;;;1999.90;999.90;;;8.60;99.90;;;;;;5073139;28;20035;-73
2023/05/16 02:53:58;;;;;;;1999.90;999.90;;;8.50;99.90;;;;;;5073439;28;20020;-73
2023/05/16 02:56:25;;;;;;;1999.90;999.90;;;8.50;99.90;;;;;;5072606;28;20521;-74
2023/05/16 02:58:52;;;;;;;1999.90;999.90;;;8.50;99.90;;;;;;5072943;28;20052;-77
2023/05/16 03:01:18;;;;;;;1999.90;999.90;;;8.40;99.90;;;;;;5072617;28;20029;-76
2023/05/16 03:03:44;;;;;;;1999.90;999.90;;;8.40;99.90;;;;;;5072995;28;20078;-73
2023/05/16 03:06:09;;;;;;;1999.90;999.90;;;8.40;99.90;;;;;;5072628;28;20051;-76
2023/05/16 03:08:35;;;;;;;1999.90;999.90;;;8.40;99.90;;;;;;5072817;28;20468;-76
2023/05/16 03:11:01;;;;;;;1999.90;999.90;;;8.30;99.90;;;;;;5072833;28;20479;-76
2023/05/16 03:13:28;;;;;;;1999.90;999.90;;;8.30;99.90;;;;;;5072680;28;20031;-77
2023/05/16 03:15:54;;;;;;;1999.90;999.90;;;8.30;99.90;;;;;;5073119;28;20027;-74
2023/05/16 03:18:20;;;;;;;1999.90;999.90;;;8.20;99.90;;;;;;5072584;28;20533;-73
2023/05/16 03:20:46;;;;;;;1999.90;999.90;;;8.20;99.90;;;;;;5072661;28;20411;-77
2023/05/16 03:23:12;;;;;;;1999.90;999.90;;;8.20;99.90;;;;;;5072583;28;20028;-76
2023/05/16 03:25:37;;;;;;;1999.90;999.90;;;8.20;99.90;;;;;;5072489;28;20028;-77
2023/05/16 03:28:06;;;;;;;1999.90;999.90;;;8.10;99.90;;;;;;5072695;28;20132;-76
2023/05/16 03:30:33;;;;;;;1999.90;999.90;;;8.10;99.90;;;;;;5072814;28;20124;-74
2023/05/16 03:32:58;;;;;;;1999.90;999.90;;;8.10;99.90;;;;;;5072534;28;20008;-76
2023/05/16 03:35:24;;;;;;;1999.90;999.90;;;8.10;99.90;;;;;;5072517;28;20038;-77
2023/05/16 03:37:50;;;;;;;1999.90;999.90;;;8.10;99.90;;;;;;5072481;28;20115;-77
2023/05/16 03:40:16;;;;;;;1999.90;999.90;;;8.10;99.90;;;;;;5072351;28;20082;-73
2023/05/16 03:42:42;;;;;;;1999.90;999.90;;;8.10;99.90;;;;;;5071665;28;20507;-73
2023/05/16 03:45:08;;;;;;;1999.90;999.90;;;8.00;99.90;;;;;;5072483;28;20024;-73
2023/05/16 03:47:34;;;;;;;1999.90;999.90;;;8.00;99.90;;;;;;5072253;28;20024;-77
2023/05/16 03:49:59;;;;;;;1999.90;999.90;;;8.00;99.90;;;;;;5072377;28;20547;-73
2023/05/16 03:52:25;;;;;;;1999.90;999.90;;;7.90;99.90;;;;;;5072533;28;20070;-77
2023/05/16 03:54:51;;;;;;;1999.90;999.90;;;7.90;99.90;;;;;;5072622;28;20037;-77
2023/05/16 03:57:16;;;;;;;1999.90;999.90;;;7.90;99.90;;;;;;5072264;28;20506;-73
2023/05/16 03:59:42;;;;;;;1999.90;999.90;;;7.90;99.90;;;;;;5072243;28;20036;-73
2023/05/16 04:02:07;;;;;;;1999.90;999.90;;;7.90;99.90;;;;;;5056421;28;20026;-77
2023/05/16 04:04:33;;;;;;;1999.90;999.90;;;7.90;99.90;;;;;;5052448;28;20107;-77
2023/05/16 04:07:00;;;;;;;1999.90;999.90;;;7.90;99.90;;;;;;5052130;28;20134;-76
2023/05/16 04:09:26;;;;;;;1999.90;999.90;;;7.90;99.90;;;;;;5052551;28;20029;-77
2023/05/16 04:11:51;;;;;;;1999.90;999.90;;;7.80;99.90;;;;;;5052120;28;20025;-73
2023/05/16 04:14:17;;;;;;;1999.90;999.90;;;7.80;99.90;;;;;;5051968;28;20061;-76
2023/05/16 04:16:43;;;;;;;1999.90;999.90;;;7.70;99.90;;;;;;5060886;28;20027;-76
2023/05/16 04:19:08;;;;;;;1999.90;999.90;;;7.80;99.90;;;;;;5072030;28;20044;-76
2023/05/16 04:21:35;;;;;;;1999.90;999.90;;;7.70;99.90;;;;;;5072159;28;20035;-73
2023/05/16 04:24:01;;;;;;;1999.90;999.90;;;7.70;99.90;;;;;;5071250;28;20038;-73
2023/05/16 04:26:26;;;;;;;1999.90;999.90;;;7.70;99.90;;;;;;5071856;28;20033;-74
2023/05/16 04:28:52;;;;;;;1999.90;999.90;;;7.60;99.90;;;;;;5072042;28;20029;-76
2023/05/16 04:31:18;;;;;;;1999.90;999.90;;;7.60;99.90;;;;;;5074451;28;20025;-76
2023/05/16 04:33:43;;;;;;;1999.90;999.90;;;7.50;99.90;;;;;;5075761;28;20034;-76
2023/05/16 04:36:09;;;;;;;1999.90;999.90;;;7.50;99.90;;;;;;5075493;28;20479;-73
2023/05/16 04:38:34;;;;;;;1999.90;999.90;;;7.50;99.90;;;;;;5075270;28;20484;-73
2023/05/16 04:41:01;;;;;;;1999.90;999.90;;;7.50;99.90;;;;;;5075686;28;20024;-76
2023/05/16 04:43:27;;;;;;;1999.90;999.90;;;7.50;99.90;;;;;;5074577;28;20391;-77
2023/05/16 04:45:52;;;;;;;1999.90;999.90;;;7.50;99.90;;;;;;5075514;28;20024;-77
2023/05/16 04:48:18;;;;;;;1999.90;999.90;;;7.50;99.90;;;;;;5075424;28;20066;-76
2023/05/16 04:50:44;;;;;;;1999.90;999.90;;;7.50;99.90;;;;;;5075216;28;20487;-73
2023/05/16 04:53:10;;;;;;;1999.90;999.90;;;7.50;99.90;;;;;;5075138;28;20042;-77
2023/05/16 04:55:35;;;;;;;1999.90;999.90;;;7.50;99.90;;;;;;5064846;28;20025;-76
2023/05/16 04:58:01;;;;;;;1999.90;999.90;;;7.50;99.90;;;;;;5070934;28;20025;-73
2023/05/16 05:00:27;;;;;;;1999.90;999.90;;;7.50;99.90;;;;;;5074043;28;20493;-73
2023/05/16 05:02:53;;;;;;;1999.90;999.90;;;7.50;99.90;;;;;;5074821;28;20414;-73
2023/05/16 05:05:18;;;;;;;1999.90;999.90;;;7.50;99.90;;;;;;5065513;28;20025;-73
2023/05/16 05:07:44;;;;;;;1999.90;999.90;;;7.50;99.90;;;;;;5054348;28;20040;-76
2023/05/16 05:10:11;;;;;;;1999.90;999.90;;;7.50;99.90;;;;;;5073757;28;20504;-73
2023/05/16 05:12:37;;;;;;;1999.90;999.90;;;7.50;99.90;;;;;;5074664;28;20024;-76
2023/05/16 05:15:05;;;;;;;1999.90;999.90;;;7.50;99.90;;;;;;5074389;28;20484;-76
2023/05/16 05:17:30;;;;;;;1999.90;999.90;;;7.60;99.90;;;;;;5058920;28;20116;-73
2023/05/16 05:19:56;;;;;;;1999.90;999.90;;;7.60;99.90;;;;;;5054481;28;20108;-76
2023/05/16 05:22:22;;;;;;;1999.90;999.90;;;7.60;99.90;;;;;;5054634;28;20104;-76
2023/05/16 05:24:47;;;;;;;1999.90;999.90;;;7.70;99.90;;;;;;5054574;28;20103;-76
2023/05/16 05:27:13;;;;;;;1999.90;999.90;;;7.70;99.90;;;;;;5054094;28;20032;-73
2023/05/16 05:29:39;;;;;;;1999.90;999.90;;;7.80;99.90;;;;;;5055263;28;20025;-73
2023/05/16 05:32:05;;;;;;;1999.90;999.90;;;7.80;99.90;;;;;;5061113;28;20500;-76
2023/05/16 05:34:30;;;;;;;1999.90;999.90;;;7.80;99.90;;;;;;5057182;28;20017;-76
2023/05/16 05:36:56;;;;;;;1999.90;999.90;;;7.90;99.90;;;;;;5063711;28;20032;-76
2023/05/16 05:39:23;;;;;;;1999.90;999.90;;;7.90;99.90;;;;;;5067773;28;20025;-73
2023/05/16 05:41:48;;;;;;;1999.90;999.90;;;8.00;99.90;;;;;;5066437;28;20032;-73
2023/05/16 05:44:14;;;;;;;1999.90;999.90;;;8.00;99.90;;;;;;5061951;28;20036;-76
2023/05/16 05:46:40;;;;;;;1999.90;999.90;;;8.00;99.90;;;;;;5066945;28;20029;-76
2023/05/16 05:49:06;;;;;;;1999.90;999.90;;;8.10;99.90;;;;;;5063070;28;20024;-76
2023/05/16 05:51:35;;;;;;;1999.90;999.90;;;8.10;99.90;;;;;;5053417;28;20032;-77
2023/05/16 05:54:01;;;;;;;1999.90;999.90;;;8.20;99.90;;;;;;5055705;28;20037;-74
2023/05/16 05:56:27;;;;;;;1999.90;999.90;;;8.20;99.90;;;;;;5059232;28;20037;-74
2023/05/16 05:58:53;;;;;;;1999.90;999.90;;;8.30;99.90;;;;;;5060123;28;20469;-73
2023/05/16 06:01:20;;;;;;;1999.90;999.90;;;8.30;99.90;;;;;;5058747;28;20556;-77
2023/05/16 06:03:46;;;;;;;1999.90;999.90;;;8.40;99.90;;;;;;5068207;28;20442;-77
2023/05/16 06:06:11;;;;;;;1999.90;999.90;;;8.50;99.90;;;;;;5058138;28;20075;-74
2023/05/16 06:08:37;;;;;;;1999.90;999.90;;;8.50;99.90;;;;;;5062419;28;20068;-74
2023/05/16 06:11:02;;;;;;;1999.90;999.90;;;8.50;99.90;;;;;;5061623;28;20033;-77
2023/05/16 06:13:28;;;;;;;1999.90;999.90;;;8.50;99.90;;;;;;5064914;28;20088;-74
2023/05/16 06:15:54;;;;;;;1999.90;999.90;;;8.60;99.90;;;;;;5063584;28;20035;-79
2023/05/16 06:18:20;;;;;;;1999.90;999.90;;;8.70;99.90;;;;;;5063538;28;20031;-74
2023/05/16 06:20:46;;;;;;;1999.90;999.90;;;8.70;99.90;;;;;;5064961;28;20109;-74
2023/05/16 06:23:11;;;;;;;1999.90;999.90;;;8.80;99.90;;;;;;5062533;28;20573;-77
2023/05/16 06:25:37;;;;;;;1999.90;999.90;;;8.80;99.90;;;;;;5063462;28;20056;-74
2023/05/16 06:28:03;;;;;;;1999.90;999.90;;;8.90;99.90;;;;;;5065150;28;20044;-74
2023/05/16 06:30:28;;;;;;;1999.90;999.90;;;9.00;99.90;;;;;;5065173;28;20048;-74
2023/05/16 06:32:54;;;;;;;1999.90;999.90;;;9.10;99.90;;;;;;5066721;28;20043;-73
2023/05/16 06:35:20;;;;;;;1999.90;999.90;;;9.20;99.90;;;;;;5068156;28;20464;-74
2023/05/16 06:37:45;;;;;;;1999.90;999.90;;;9.30;99.90;;;;;;5065293;28;20027;-78
2023/05/16 06:40:11;;;;;;;1999.90;999.90;;;9.30;99.90;;;;;;5068807;28;20032;-77
2023/05/16 06:42:37;;;;;;;1999.90;999.90;;;9.40;99.90;;;;;;5069523;28;20028;-77
2023/05/16 06:45:03;;;;;;;1999.90;999.90;;;9.50;99.90;;;;;;5069392;28;20111;-73
2023/05/16 06:47:29;;;;;;;1999.90;999.90;;;9.60;99.90;;;;;;5070785;28;20033;-74
2023/05/16 06:49:54;;;;;;;1999.90;999.90;;;9.80;99.90;;;;;;5055977;28;20025;-77
2023/05/16 06:52:21;;;;;;;1999.90;999.90;;;9.90;99.90;;;;;;5053307;28;20492;-77
2023/05/16 06:54:46;;;;;;;1999.90;999.90;;;10.00;99.90;;;;;;5060975;28;20077;-73
2023/05/16 06:57:12;;;;;;;1999.90;999.90;;;10.10;99.90;;;;;;5054129;28;20809;-79
2023/05/16 06:59:38;;;;;;;1999.90;999.90;;;10.30;99.90;;;;;;5063559;28;20048;-73
2023/05/16 07:02:05;;;;;;;1999.90;999.90;;;10.30;99.90;;;;;;5054866;28;20059;-78
2023/05/16 07:04:30;;;;;;;1999.90;999.90;;;10.40;99.90;;;;;;5065679;28;20028;-77
2023/05/16 07:06:56;;;;;;;1999.90;999.90;;;10.50;99.90;;;;;;5065600;28;20037;-77
2023/05/16 07:09:22;;;;;;;1999.90;999.90;;;10.60;99.90;;;;;;5069431;28;20055;-77
2023/05/16 07:11:47;;;;;;;1999.90;999.90;;;10.70;99.90;;;;;;5065060;28;20430;-73
2023/05/16 07:14:13;;;;;;;1999.90;999.90;;;10.90;99.90;;;;;;5070062;28;20029;-74
2023/05/16 07:16:38;;;;;;;1999.90;999.90;;;11.00;99.90;;;;;;5064782;28;20028;-77
2023/05/16 07:19:14;;;;;;;1999.90;999.90;;;11.10;99.90;;;;;;5064341;28;20028;-79
2023/05/16 07:21:40;;;;;;;1999.90;999.90;;;11.20;99.90;;;;;;5062988;28;20035;-77
2023/05/16 07:24:06;;;;;;;1999.90;999.90;;;11.30;99.90;;;;;;5068871;28;20032;-73
2023/05/16 07:26:31;;;;;;;1999.90;999.90;;;11.30;99.90;;;;;;5065659;28;20012;-74
2023/05/16 07:28:57;;;;;;;1999.90;999.90;;;11.50;99.90;;;;;;5063670;28;20376;-78
2023/05/16 07:31:23;;;;;;;1999.90;999.90;;;11.60;99.90;;;;;;5063312;28;20028;-74
2023/05/16 07:33:48;;;;;;;1999.90;999.90;;;11.80;99.90;;;;;;5067318;28;20029;-78
2023/05/16 07:36:15;;;;;;;1999.90;999.90;;;11.80;99.90;;;;;;5068630;28;20021;-74
2023/05/16 07:38:40;;;;;;;1999.90;999.90;;;12.20;99.90;;;;;;5068255;28;20039;-74
2023/05/16 07:41:06;;;;;;;1999.90;999.90;;;13.90;99.90;;;;;;5069209;28;20388;-78
2023/05/16 07:43:34;;;;;;;1999.90;999.90;;;16.20;99.90;;;;;;5068529;28;20630;-74
2023/05/16 07:46:00;;;;;;;1999.90;999.90;;;17.70;99.90;;;;;;5063329;28;20021;-74
2023/05/16 07:48:26;;;;;;;1999.90;999.90;;;19.10;99.90;;;;;;5065045;28;20062;-78
2023/05/16 07:50:52;;;;;;;1999.90;999.90;;;19.60;99.90;;;;;;5065703;28;20036;-74
2023/05/16 07:53:17;;;;;;;1999.90;999.90;;;20.00;99.90;;;;;;5068089;28;20353;-79
2023/05/16 07:55:43;;;;;;;1999.90;999.90;;;20.60;99.90;;;;;;5065802;28;20086;-75
2023/05/16 07:58:09;;;;;;;1999.90;999.90;;;20.90;99.90;;;;;;5060939;28;20043;-74
2023/05/16 08:00:34;;;;;;;1999.90;999.90;;;21.60;99.90;;;;;;5066453;28;20029;-74
2023/05/16 08:03:00;;;;;;;1999.90;999.90;;;21.70;99.80;;;;;;5068598;28;20084;-75
2023/05/16 08:05:26;;;;;;;1999.90;999.90;;;22.70;99.00;;;;;;5069789;28;20039;-74
2023/05/16 08:07:51;;;;;;;1999.90;999.90;;;22.20;98.50;;;;;;5067565;28;20140;-79
2023/05/16 08:10:17;;;;;;;1999.90;999.90;;;22.10;98.40;;;;;;5063535;28;20491;-75
2023/05/16 08:12:42;;;;;;;1999.90;999.90;;;22.20;98.10;;;;;;5068312;28;20021;-78
2023/05/16 08:15:09;;;;;;;1999.90;999.90;;;21.90;96.50;;;;;;5073002;28;20059;-75
2023/05/16 08:17:34;;;;;;;1999.90;999.90;;;22.60;97.70;;;;;;5067913;28;20055;-75
2023/05/16 08:20:00;;;;;;;1999.90;999.90;;;22.30;95.50;;;;;;5073047;28;20308;-79
2023/05/16 08:22:26;;;;;;;1999.90;999.90;;;22.30;95.20;;;;;;5068593;28;20446;-80
2023/05/16 08:24:56;;;;;;;1999.90;999.90;;;22.60;94.40;;;;;;5071525;28;20031;-79
2023/05/16 08:27:25;;;;;;;1999.90;999.90;;;22.50;96.70;;;;;;5068137;28;20175;-79
2023/05/16 08:29:51;;;;;;;1999.90;999.90;;;23.00;94.90;;;;;;5067466;28;20480;-75
2023/05/16 08:32:16;;;;;;;1999.90;999.90;;;23.80;93.60;;;;;;5069896;28;20051;-74
2023/05/16 08:34:42;;;;;;;1999.90;999.90;;;23.60;93.10;;;;;;5072148;28;20024;-79
2023/05/16 08:37:09;;;;;;;1999.90;999.90;;;24.20;92.10;;;;;;5067907;28;20428;-79
2023/05/16 08:39:34;;;;;;;1999.90;999.90;;;23.50;90.90;;;;;;5067879;28;20111;-78
2023/05/16 08:42:00;;;;;;;1999.90;999.90;;;23.40;91.30;;;;;;5067165;28;20120;-75
2023/05/16 08:44:28;;;;;;;1999.90;999.90;;;23.30;91.00;;;;;;5069394;28;20082;-75
2023/05/16 08:46:53;;;;;;;1999.90;999.90;;;25.00;91.70;;;;;;5065480;28;20024;-78
2023/05/16 08:49:20;;;;;;;1999.90;999.90;;;25.50;89.70;;;;;;5073821;28;20044;-76
2023/05/16 08:51:47;;;;;;;1999.90;999.90;;;25.10;88.80;;;;;;5070410;28;20381;-78
2023/05/16 08:54:14;;;;;;;1999.90;999.90;;;24.70;88.20;;;;;;5072530;28;20119;-75
2023/05/16 08:56:41;;;;;;;1999.90;999.90;;;24.20;88.20;;;;;;5064562;28;20525;-75
2023/05/16 08:59:07;;;;;;;1999.90;999.90;;;24.00;87.90;;;;;;5073139;28;20017;-79
2023/05/16 09:01:33;;;;;;;1999.90;999.90;;;24.90;89.50;;;;;;5071725;28;20017;-75
2023/05/16 09:04:00;;;;;;;1999.90;999.90;;;24.60;85.90;;;;;;5069941;28;20025;-75
2023/05/16 09:06:26;;;;;;;1999.90;999.90;;;24.40;85.80;;;;;;5066995;28;20060;-75
2023/05/16 09:08:55;;;;;;;1999.90;999.90;;;23.70;85.70;;;;;;5067808;28;20028;-75
2023/05/16 09:11:21;;;;;;;1999.90;999.90;;;23.90;86.40;;;;;;5071407;28;20025;-75
2023/05/16 09:13:48;;;;;;;1999.90;999.90;;;24.80;87.00;;;;;;5066250;28;21311;-78
2023/05/16 09:16:15;;;;;;;1999.90;999.90;;;25.40;87.70;;;;;;5068208;28;20024;-80
2023/05/16 09:18:43;;;;;;;1999.90;999.90;;;24.60;84.80;;;;;;5062796;28;20112;-80
2023/05/16 09:21:10;;;;;;;1999.90;999.90;;;25.00;84.30;;;;;;5071639;28;20086;-75
2023/05/16 09:23:36;;;;;;;1999.90;999.90;;;24.80;86.30;;;;;;5065249;28;20459;-75
2023/05/16 09:26:04;;;;;;;1999.90;999.90;;;25.00;84.10;;;;;;5062881;28;20059;-78
2023/05/16 09:28:30;;;;;;;1999.90;999.90;;;24.80;84.10;;;;;;5064703;28;20025;-76
2023/05/16 09:30:58;;;;;;;1999.90;999.90;;;24.30;82.60;;;;;;5062362;28;20024;-75
2023/05/16 09:33:27;;;;;;;1999.90;999.90;;;24.40;84.20;;;;;;5068205;28;20492;-74
2023/05/16 09:35:57;;;;;;;1999.90;999.90;;;23.80;82.90;;;;;;5069134;28;20024;-75
2023/05/16 09:38:25;;;;;;;1999.90;999.90;;;24.50;84.60;;;;;;5066788;28;20032;-74
2023/05/16 09:40:50;;;;;;;1999.90;999.90;;;24.40;82.40;;;;;;5068818;28;20454;-76
2023/05/16 09:43:17;;;;;;;1999.90;999.90;;;24.60;84.00;;;;;;5071000;28;20040;-79
2023/05/16 09:45:47;;;;;;;1999.90;999.90;;;23.40;81.30;;;;;;5069667;28;20029;-80
2023/05/16 09:48:14;;;;;;;1999.90;999.90;;;24.00;83.90;;;;;;5064753;28;20423;-74
2023/05/16 09:50:45;;;;;;;1999.90;999.90;;;23.80;83.20;;;;;;5070132;28;20051;-79
2023/05/16 09:53:12;;;;;;;1999.90;999.90;;;24.20;86.90;;;;;;5066192;28;20154;-80
2023/05/16 09:55:38;;;;;;;1999.90;999.90;;;25.60;83.00;;;;;;5066203;28;20107;-76
2023/05/16 09:58:04;;;;;;;1999.90;999.90;;;24.60;81.20;;;;;;5062515;28;20483;-79
2023/05/16 10:00:31;;;;;;;1999.90;999.90;;;24.70;81.50;;;;;;5059923;28;21140;-78
2023/05/16 10:02:57;;;;;;;1999.90;999.90;;;24.50;81.80;;;;;;5060145;28;20043;-76
2023/05/16 10:05:26;;;;;;;1999.90;999.90;;;24.50;81.90;;;;;;5070426;28;20028;-78
2023/05/16 10:07:56;;;;;;;1999.90;999.90;;;24.90;82.60;;;;;;5068531;28;20125;-74
2023/05/16 10:10:22;;;;;;;1999.90;999.90;;;25.80;83.10;;;;;;5070897;28;20035;-78
2023/05/16 10:12:50;;;;;;;1999.90;999.90;;;24.90;79.60;;;;;;5070801;28;20024;-76
2023/05/16 10:15:17;;;;;;;1999.90;999.90;;;24.60;78.20;;;;;;5068770;28;20020;-76
2023/05/16 10:17:44;;;;;;;1999.90;999.90;;;24.40;80.90;;;;;;5065372;28;20033;-79
2023/05/16 10:20:11;;;;;;;1999.90;999.90;;;25.20;81.80;;;;;;5070874;28;20176;-79
2023/05/16 10:22:42;;;;;;;1999.90;999.90;;;25.80;82.80;;;;;;5062756;28;20109;-79
2023/05/16 10:25:29;;;;;;;1999.90;999.90;;;25.70;80.60;;;;;;5060861;28;20025;-76
2023/05/16 10:27:55;;;;;;;1999.90;999.90;;;25.60;79.60;;;;;;5069873;28;20024;-75
2023/05/16 10:30:21;;;;;;;1999.90;999.90;;;25.10;78.30;;;;;;5064912;28;20036;-80
2023/05/16 10:32:48;;;;;;;1999.90;999.90;;;24.30;79.40;;;;;;5068775;28;20028;-75
2023/05/16 10:35:14;;;;;;;1999.90;999.90;;;24.50;80.20;;;;;;5067415;28;20040;-79
2023/05/16 10:37:41;;;;;;;1999.90;999.90;;;24.30;79.30;;;;;;5065906;28;20107;-76
2023/05/16 10:40:08;;;;;;;1999.90;999.90;;;24.20;78.60;;;;;;5065336;28;20020;-75
2023/05/16 10:42:34;;;;;;;1999.90;999.90;;;23.80;77.80;;;;;;5067089;28;20024;-79
2023/05/16 10:45:18;;;;;;;1999.90;999.90;;;23.60;79.20;;;;;;5053747;28;20392;-79
2023/05/16 10:47:51;;;;;;;1999.90;999.90;;;24.30;80.10;;;;;;5059070;28;20036;-79
2023/05/16 10:50:50;;;;;;;1999.90;999.90;;;24.00;79.50;;;;;;5064701;28;20467;-79
2023/05/16 10:53:19;;;;;;;1999.90;999.90;;;24.10;80.20;;;;;;5039861;28;20045;-79
2023/05/16 10:56:08;;;;;;;1999.90;999.90;;;23.70;78.70;;;;;;5059534;28;20024;-79
2023/05/16 10:58:37;;;;;;;1999.90;999.90;;;24.20;79.00;;;;;;5069961;28;20066;-79
2023/05/16 11:01:23;;;;;;;1999.90;999.90;;;24.00;78.70;;;;;;5064079;28;20028;-79
2023/05/16 11:03:57;;;;;;;1999.90;999.90;;;24.90;80.50;;;;;;5057401;28;20033;-79
2023/05/16 11:06:24;;;;;;;1999.90;999.90;;;25.10;76.80;;;;;;5052112;28;20438;-76
2023/05/16 11:09:12;;;;;;;1999.90;999.90;;;24.60;78.90;;;;;;5060749;28;20047;-79
2023/05/16 11:11:56;;;;;;;1999.90;999.90;;;25.00;79.90;;;;;;5064134;28;20529;-79
2023/05/16 11:14:28;;;;;;;1999.90;999.90;;;24.60;75.30;;;;;;5057710;28;20376;-78
2023/05/16 11:17:14;;;;;;;1999.90;999.90;;;24.50;76.80;;;;;;5069703;28;20107;-75
2023/05/16 11:19:44;;;;;;;1999.90;999.90;;;24.60;76.80;;;;;;5063926;28;20047;-79
2023/05/16 11:22:20;;;;;;;1999.90;999.90;;;24.60;77.80;;;;;;5068616;28;20031;-79
2023/05/16 11:25:07;;;;;;;1999.90;999.90;;;24.10;76.00;;;;;;5060419;28;20036;-79
2023/05/16 11:27:35;;;;;;;1999.90;999.90;;;23.50;77.80;;;;;;5061322;28;20024;-79
2023/05/16 11:30:14;;;;;;;1999.90;999.90;;;23.70;78.90;;;;;;5067056;28;20806;-80
2023/05/16 11:32:42;;;;;;;1999.90;999.90;;;24.00;76.50;;;;;;5070223;28;20025;-75
2023/05/16 11:35:10;;;;;;;1999.90;999.90;;;24.00;77.30;;;;;;5062410;28;20396;-78
2023/05/16 11:37:38;;;;;;;1999.90;999.90;;;24.10;79.40;;;;;;5067854;28;20024;-79
2023/05/16 11:40:07;;;;;;;1999.90;999.90;;;23.40;78.40;;;;;;5064967;28;20510;-79
2023/05/16 11:42:35;;;;;;;1999.90;999.90;;;23.60;76.90;;;;;;5071710;28;20621;-79
2023/05/16 11:45:08;;;;;;;1999.90;999.90;;;23.30;76.30;;;;;;5061078;28;20218;-75
2023/05/16 11:47:38;;;;;;;1999.90;999.90;;;22.90;77.50;;;;;;5063027;28;20070;-78
2023/05/16 11:50:12;;;;;;;1999.90;999.90;;;23.70;77.80;;;;;;5069577;28;20039;-79
2023/05/16 11:52:39;;;;;;;1999.90;999.90;;;23.90;77.40;;;;;;5072029;28;20463;-80
2023/05/16 11:55:06;;;;;;;1999.90;999.90;;;23.60;79.50;;;;;;5070690;28;20025;-79
2023/05/16 11:57:32;;;;;;;1999.90;999.90;;;24.70;83.00;;;;;;5070089;28;20020;-75
2023/05/16 12:00:16;;;;;;;1999.90;999.90;;;24.20;80.80;;;;;;5066914;28;20047;-75
2023/05/16 12:02:43;;;;;;;1999.90;999.90;;;24.20;80.90;;;;;;5070624;28;20024;-78
2023/05/16 12:05:10;;;;;;;1999.90;999.90;;;23.10;80.30;;;;;;5066540;28;20036;-78